sensor_id;sensor_type;location;lat;lon;timestamp;pressure;altitude;pressure_sealevel;temperature;humidity
78675;BME280;67990;59.826;30.108;2023-05-27T00:01:01;101742.56;;;11.38;66.24
78675;BME280;67990;59.826;30.108;2023-05-27T00:03:28;101750.34;;;11.39;66.15
78675;BME280;67990;59.826;30.108;2023-05-27T00:05:55;101744.69;;;11.33;66.59
78675;BME280;67990;59.826;30.108;2023-05-27T00:08:41;101746.47;;;11.32;66.89
78675;BME280;67990;59.826;30.108;2023-05-27T00:11:27;101746.47;;;11.32;67.04
78675;BME280;67990;59.826;30.108;2023-05-27T00:13:55;101748.16;;;11.33;66.73
78675;BME280;67990;59.826;30.108;2023-05-27T00:16:23;101754.38;;;11.32;66.29
78675;BME280;67990;59.826;30.108;2023-05-27T00:18:50;101747.66;;;11.28;66.24
78675;BME280;67990;59.826;30.108;2023-05-27T00:21:18;101750.41;;;11.27;66.13
78675;BME280;67990;59.826;30.108;2023-05-27T00:23:45;101755.06;;;11.23;65.86
78675;BME280;67990;59.826;30.108;2023-05-27T00:26:13;101751.41;;;11.13;65.95
78675;BME280;67990;59.826;30.108;2023-05-27T00:29:17;101748.41;;;11.07;66.39
78675;BME280;67990;59.826;30.108;2023-05-27T00:32:03;101762.22;;;10.98;66.62
78675;BME280;67990;59.826;30.108;2023-05-27T00:34:32;101759.31;;;10.90;66.68
78675;BME280;67990;59.826;30.108;2023-05-27T00:37:00;101767.19;;;10.90;66.60
78675;BME280;67990;59.826;30.108;2023-05-27T00:39:28;101768.44;;;10.97;67.00
78675;BME280;67990;59.826;30.108;2023-05-27T00:48:04;101768.38;;;11.33;67.34
78675;BME280;67990;59.826;30.108;2023-05-27T00:51:08;101769.03;;;11.48;66.57
78675;BME280;67990;59.826;30.108;2023-05-27T00:53:39;101767.59;;;11.54;67.05
78675;BME280;67990;59.826;30.108;2023-05-27T00:56:24;101764.19;;;11.65;66.52
78675;BME280;67990;59.826;30.108;2023-05-27T00:58:52;101764.56;;;11.72;65.98
78675;BME280;67990;59.826;30.108;2023-05-27T01:01:20;101766.38;;;11.71;66.26
78675;BME280;67990;59.826;30.108;2023-05-27T01:03:51;101758.72;;;11.79;66.20
78675;BME280;67990;59.826;30.108;2023-05-27T01:06:24;101765.88;;;11.77;66.69
78675;BME280;67990;59.826;30.108;2023-05-27T01:11:50;101762.53;;;11.86;66.22
78675;BME280;67990;59.826;30.108;2023-05-27T01:14:20;101769.16;;;11.92;66.53
78675;BME280;67990;59.826;30.108;2023-05-27T01:16:55;101772.16;;;11.98;65.78
78675;BME280;67990;59.826;30.108;2023-05-27T01:19:27;101753.00;;;11.96;65.30
78675;BME280;67990;59.826;30.108;2023-05-27T01:22:33;101781.63;;;12.12;65.08
78675;BME280;67990;59.826;30.108;2023-05-27T01:25:01;101776.00;;;12.05;65.45
78675;BME280;67990;59.826;30.108;2023-05-27T01:31:12;101784.63;;;12.07;65.09
78675;BME280;67990;59.826;30.108;2023-05-27T01:33:59;101786.91;;;12.01;64.86
78675;BME280;67990;59.826;30.108;2023-05-27T01:36:31;101783.41;;;12.00;64.72
78675;BME280;67990;59.826;30.108;2023-05-27T01:39:18;101788.72;;;12.11;63.92
78675;BME280;67990;59.826;30.108;2023-05-27T01:41:46;101794.22;;;12.08;64.58
78675;BME280;67990;59.826;30.108;2023-05-27T01:44:14;101801.03;;;12.11;64.31
78675;BME280;67990;59.826;30.108;2023-05-27T01:47:02;101793.25;;;12.09;64.32
78675;BME280;67990;59.826;30.108;2023-05-27T01:49:29;101798.63;;;12.08;64.15
78675;BME280;67990;59.826;30.108;2023-05-27T01:51:57;101797.44;;;12.12;63.80
78675;BME280;67990;59.826;30.108;2023-05-27T01:54:26;101806.66;;;12.17;63.39
78675;BME280;67990;59.826;30.108;2023-05-27T01:59:39;101804.03;;;12.17;64.00
78675;BME280;67990;59.826;30.108;2023-05-27T02:02:07;101807.59;;;12.05;63.88
78675;BME280;67990;59.826;30.108;2023-05-27T02:04:34;101795.41;;;12.04;64.19
78675;BME280;67990;59.826;30.108;2023-05-27T02:09:50;101819.22;;;12.03;63.75
78675;BME280;67990;59.826;30.108;2023-05-27T02:12:17;101819.47;;;12.11;63.70
78675;BME280;67990;59.826;30.108;2023-05-27T02:14:44;101815.53;;;12.16;63.52
78675;BME280;67990;59.826;30.108;2023-05-27T02:17:49;101821.38;;;12.20;63.47
78675;BME280;67990;59.826;30.108;2023-05-27T02:20:21;101824.88;;;12.20;62.90
78675;BME280;67990;59.826;30.108;2023-05-27T02:22:50;101831.81;;;12.21;63.36
78675;BME280;67990;59.826;30.108;2023-05-27T02:25:18;101840.19;;;12.26;63.21
78675;BME280;67990;59.826;30.108;2023-05-27T02:28:04;101832.78;;;12.31;64.00
78675;BME280;67990;59.826;30.108;2023-05-27T02:30:31;101831.09;;;12.30;63.73
78675;BME280;67990;59.826;30.108;2023-05-27T02:33:17;101839.50;;;12.24;63.37
78675;BME280;67990;59.826;30.108;2023-05-27T02:41:17;101841.88;;;12.38;63.02
78675;BME280;67990;59.826;30.108;2023-05-27T02:43:44;101847.75;;;12.42;62.89
78675;BME280;67990;59.826;30.108;2023-05-27T02:46:11;101854.97;;;12.51;62.98
78675;BME280;67990;59.826;30.108;2023-05-27T02:48:38;101848.50;;;12.55;62.96
78675;BME280;67990;59.826;30.108;2023-05-27T02:51:06;101860.59;;;12.57;62.92
78675;BME280;67990;59.826;30.108;2023-05-27T02:53:33;101853.88;;;12.64;63.36
78675;BME280;67990;59.826;30.108;2023-05-27T02:59:25;101858.69;;;12.70;62.91
78675;BME280;67990;59.826;30.108;2023-05-27T03:01:52;101862.97;;;12.93;62.54
78675;BME280;67990;59.826;30.108;2023-05-27T03:07:23;101870.63;;;12.96;60.82
78675;BME280;67990;59.826;30.108;2023-05-27T03:10:09;101873.31;;;13.07;61.09
78675;BME280;67990;59.826;30.108;2023-05-27T03:12:36;101869.16;;;13.68;59.65
78675;BME280;67990;59.826;30.108;2023-05-27T03:15:23;101876.88;;;14.12;57.79
78675;BME280;67990;59.826;30.108;2023-05-27T03:17:50;101879.84;;;14.59;56.75
78675;BME280;67990;59.826;30.108;2023-05-27T03:23:03;101877.88;;;15.78;51.94
78675;BME280;67990;59.826;30.108;2023-05-27T03:25:31;101878.22;;;16.50;50.44
78675;BME280;67990;59.826;30.108;2023-05-27T03:28:00;101882.97;;;17.20;48.78
78675;BME280;67990;59.826;30.108;2023-05-27T03:30:28;101889.63;;;16.97;48.19
78675;BME280;67990;59.826;30.108;2023-05-27T03:32:57;101893.00;;;16.62;48.34
78675;BME280;67990;59.826;30.108;2023-05-27T03:35:32;101892.94;;;16.25;49.04
78675;BME280;67990;59.826;30.108;2023-05-27T03:38:00;101902.56;;;16.07;49.59
78675;BME280;67990;59.826;30.108;2023-05-27T03:40:44;101901.78;;;16.72;49.54
78675;BME280;67990;59.826;30.108;2023-05-27T03:43:11;101902.47;;;16.65;48.68
78675;BME280;67990;59.826;30.108;2023-05-27T03:45:39;101900.06;;;16.06;49.31
78675;BME280;67990;59.826;30.108;2023-05-27T03:48:06;101910.22;;;15.53;49.83
78675;BME280;67990;59.826;30.108;2023-05-27T03:53:37;101904.19;;;16.93;48.14
78675;BME280;67990;59.826;30.108;2023-05-27T03:56:04;101902.81;;;17.16;46.59
78675;BME280;67990;59.826;30.108;2023-05-27T03:58:32;101911.91;;;16.50;47.24
78675;BME280;67990;59.826;30.108;2023-05-27T04:01:19;101911.66;;;17.96;44.48
78675;BME280;67990;59.826;30.108;2023-05-27T04:03:46;101906.59;;;19.70;41.09
78675;BME280;67990;59.826;30.108;2023-05-27T04:06:13;101907.47;;;21.13;38.21
78675;BME280;67990;59.826;30.108;2023-05-27T04:08:41;101908.84;;;21.40;36.58
78675;BME280;67990;59.826;30.108;2023-05-27T04:11:11;101902.75;;;22.36;35.85
78675;BME280;67990;59.826;30.108;2023-05-27T04:13:38;101904.97;;;22.84;34.60
78675;BME280;67990;59.826;30.108;2023-05-27T04:16:05;101907.16;;;23.59;32.70
78675;BME280;67990;59.826;30.108;2023-05-27T04:18:35;101913.69;;;24.34;31.57
78675;BME280;67990;59.826;30.108;2023-05-27T04:21:03;101901.88;;;24.97;30.69
78675;BME280;67990;59.826;30.108;2023-05-27T04:29:39;101902.69;;;25.31;29.63
78675;BME280;67990;59.826;30.108;2023-05-27T04:32:09;101908.97;;;24.43;29.99
78675;BME280;67990;59.826;30.108;2023-05-27T04:34:37;101914.50;;;24.62;30.16
78675;BME280;67990;59.826;30.108;2023-05-27T04:37:07;101914.13;;;23.75;30.37
78675;BME280;67990;59.826;30.108;2023-05-27T04:39:35;101916.47;;;24.47;30.25
78675;BME280;67990;59.826;30.108;2023-05-27T04:42:21;101914.97;;;25.53;28.62
78675;BME280;67990;59.826;30.108;2023-05-27T04:44:51;101923.34;;;24.84;28.22
78675;BME280;67990;59.826;30.108;2023-05-27T04:47:36;101926.00;;;25.71;27.53
78675;BME280;67990;59.826;30.108;2023-05-27T04:50:08;101906.28;;;25.58;27.15
78675;BME280;67990;59.826;30.108;2023-05-27T04:52:37;101919.75;;;25.58;27.27
78675;BME280;67990;59.826;30.108;2023-05-27T04:55:09;101931.38;;;25.71;26.95
78675;BME280;67990;59.826;30.108;2023-05-27T04:57:39;101931.06;;;26.27;26.40
78675;BME280;67990;59.826;30.108;2023-05-27T05:00:10;101929.94;;;27.56;25.67
78675;BME280;67990;59.826;30.108;2023-05-27T05:02:54;101933.69;;;28.17;25.08
78675;BME280;67990;59.826;30.108;2023-05-27T05:05:28;101933.72;;;27.42;24.05
78675;BME280;67990;59.826;30.108;2023-05-27T05:07:56;101934.34;;;25.96;26.39
78675;BME280;67990;59.826;30.108;2023-05-27T05:10:23;101930.56;;;25.71;26.83
78675;BME280;67990;59.826;30.108;2023-05-27T05:16:15;101930.81;;;26.74;24.68
78675;BME280;67990;59.826;30.108;2023-05-27T05:18:42;101940.28;;;25.78;26.20
78675;BME280;67990;59.826;30.108;2023-05-27T05:21:11;101941.44;;;26.36;26.15
78675;BME280;67990;59.826;30.108;2023-05-27T05:23:58;101950.88;;;24.37;28.44
78675;BME280;67990;59.826;30.108;2023-05-27T05:26:25;101952.94;;;24.35;29.36
78675;BME280;67990;59.826;30.108;2023-05-27T05:29:10;101947.25;;;25.47;28.45
78675;BME280;67990;59.826;30.108;2023-05-27T05:31:37;101943.47;;;25.95;27.48
78675;BME280;67990;59.826;30.108;2023-05-27T05:34:04;101949.88;;;25.27;27.94
78675;BME280;67990;59.826;30.108;2023-05-27T05:36:35;101954.78;;;25.71;27.58
78675;BME280;67990;59.826;30.108;2023-05-27T05:39:24;101961.03;;;25.84;27.82
78675;BME280;67990;59.826;30.108;2023-05-27T05:44:39;101950.94;;;28.16;24.45
78675;BME280;67990;59.826;30.108;2023-05-27T05:47:06;101955.47;;;27.60;25.29
78675;BME280;67990;59.826;30.108;2023-05-27T05:49:33;101950.22;;;27.65;24.93
78675;BME280;67990;59.826;30.108;2023-05-27T05:52:03;101949.06;;;26.78;26.47
78675;BME280;67990;59.826;30.108;2023-05-27T05:54:31;101951.47;;;27.12;25.94
78675;BME280;67990;59.826;30.108;2023-05-27T05:56:59;101954.53;;;28.35;24.70
78675;BME280;67990;59.826;30.108;2023-05-27T06:00:05;101964.06;;;28.37;24.08
78675;BME280;67990;59.826;30.108;2023-05-27T06:02:43;101955.59;;;29.84;23.26
78675;BME280;67990;59.826;30.108;2023-05-27T06:05:43;101970.38;;;28.62;23.48
78675;BME280;67990;59.826;30.108;2023-05-27T06:08:12;101965.00;;;30.11;22.70
78675;BME280;67990;59.826;30.108;2023-05-27T06:10:43;101965.78;;;30.88;22.76
78675;BME280;67990;59.826;30.108;2023-05-27T06:15:57;101975.44;;;30.08;21.82
78675;BME280;67990;59.826;30.108;2023-05-27T06:18:42;101968.47;;;30.99;20.57
78675;BME280;67990;59.826;30.108;2023-05-27T06:21:12;101975.56;;;31.23;20.14
78675;BME280;67990;59.826;30.108;2023-05-27T06:27:13;101969.78;;;30.39;20.83
78675;BME280;67990;59.826;30.108;2023-05-27T06:29:40;101980.84;;;30.49;20.93
78675;BME280;67990;59.826;30.108;2023-05-27T06:35:22;101980.56;;;32.93;19.07
78675;BME280;67990;59.826;30.108;2023-05-27T06:40:57;101986.00;;;33.14;17.69
78675;BME280;67990;59.826;30.108;2023-05-27T06:46:22;101988.09;;;31.92;18.42
78675;BME280;67990;59.826;30.108;2023-05-27T06:49:14;101994.28;;;31.87;18.88
78675;BME280;67990;59.826;30.108;2023-05-27T06:51:41;101994.84;;;32.34;18.31
78675;BME280;67990;59.826;30.108;2023-05-27T06:54:29;102007.09;;;31.01;19.56
78675;BME280;67990;59.826;30.108;2023-05-27T06:57:19;102005.25;;;32.09;17.79
78675;BME280;67990;59.826;30.108;2023-05-27T07:00:18;102007.00;;;33.78;16.35
78675;BME280;67990;59.826;30.108;2023-05-27T07:03:02;102001.22;;;32.11;16.81
78675;BME280;67990;59.826;30.108;2023-05-27T07:06:06;102005.66;;;32.01;16.89
78675;BME280;67990;59.826;30.108;2023-05-27T07:11:32;102010.91;;;32.68;15.87
78675;BME280;67990;59.826;30.108;2023-05-27T07:14:19;102016.41;;;31.40;17.02
78675;BME280;67990;59.826;30.108;2023-05-27T07:16:46;102014.34;;;31.58;16.91
78675;BME280;67990;59.826;30.108;2023-05-27T07:19:14;102019.38;;;31.04;16.85
78675;BME280;67990;59.826;30.108;2023-05-27T07:21:47;102026.28;;;32.41;16.38
78675;BME280;67990;59.826;30.108;2023-05-27T07:24:18;102024.06;;;31.20;16.89
78675;BME280;67990;59.826;30.108;2023-05-27T07:29:35;102022.41;;;31.81;16.54
78675;BME280;67990;59.826;30.108;2023-05-27T07:35:25;102029.38;;;31.38;17.06
78675;BME280;67990;59.826;30.108;2023-05-27T07:43:42;102037.91;;;32.53;15.73
78675;BME280;67990;59.826;30.108;2023-05-27T07:48:58;102041.91;;;30.81;16.63
78675;BME280;67990;59.826;30.108;2023-05-27T07:51:26;102038.47;;;31.20;15.66
78675;BME280;67990;59.826;30.108;2023-05-27T07:54:12;102025.09;;;30.38;17.19
78675;BME280;67990;59.826;30.108;2023-05-27T07:56:39;102035.09;;;30.38;17.23
78675;BME280;67990;59.826;30.108;2023-05-27T07:59:06;102030.13;;;30.23;17.80
78675;BME280;67990;59.826;30.108;2023-05-27T08:01:53;102043.38;;;29.65;18.60
78675;BME280;67990;59.826;30.108;2023-05-27T08:04:20;102033.41;;;30.25;17.71
78675;BME280;67990;59.826;30.108;2023-05-27T08:07:20;102041.66;;;29.17;18.04
78675;BME280;67990;59.826;30.108;2023-05-27T08:10:10;102040.38;;;28.77;18.70
78675;BME280;67990;59.826;30.108;2023-05-27T08:12:58;102042.41;;;26.99;19.84
78675;BME280;67990;59.826;30.108;2023-05-27T08:15:44;102032.88;;;25.77;21.24
78675;BME280;67990;59.826;30.108;2023-05-27T08:18:37;102044.78;;;25.49;22.25
78675;BME280;67990;59.826;30.108;2023-05-27T08:21:37;102038.00;;;24.49;22.39
78675;BME280;67990;59.826;30.108;2023-05-27T08:24:23;102050.22;;;23.60;23.19
78675;BME280;67990;59.826;30.108;2023-05-27T08:27:03;102056.00;;;23.92;23.20
78675;BME280;67990;59.826;30.108;2023-05-27T08:29:45;102047.00;;;25.39;22.23
78675;BME280;67990;59.826;30.108;2023-05-27T08:32:51;102057.88;;;25.58;21.99
78675;BME280;67990;59.826;30.108;2023-05-27T08:35:38;102041.16;;;26.56;20.17
78675;BME280;67990;59.826;30.108;2023-05-27T08:38:06;102040.56;;;26.93;19.67
78675;BME280;67990;59.826;30.108;2023-05-27T08:40:38;102047.94;;;27.49;19.35
78675;BME280;67990;59.826;30.108;2023-05-27T08:43:06;102048.25;;;26.83;19.44
78675;BME280;67990;59.826;30.108;2023-05-27T08:45:56;102064.00;;;25.12;21.68
78675;BME280;67990;59.826;30.108;2023-05-27T08:48:43;102056.81;;;24.07;21.97
78675;BME280;67990;59.826;30.108;2023-05-27T08:51:30;102061.59;;;23.33;22.94
78675;BME280;67990;59.826;30.108;2023-05-27T08:56:43;102062.84;;;23.80;24.27
78675;BME280;67990;59.826;30.108;2023-05-27T08:59:14;102059.28;;;23.73;24.41
78675;BME280;67990;59.826;30.108;2023-05-27T09:01:42;102063.66;;;24.31;23.84
78675;BME280;67990;59.826;30.108;2023-05-27T09:04:10;102070.63;;;24.46;23.81
78675;BME280;67990;59.826;30.108;2023-05-27T09:06:38;102065.13;;;24.54;23.43
78675;BME280;67990;59.826;30.108;2023-05-27T09:09:06;102067.69;;;25.32;22.58
78675;BME280;67990;59.826;30.108;2023-05-27T09:11:39;102065.75;;;25.60;21.50
78675;BME280;67990;59.826;30.108;2023-05-27T09:14:27;102078.31;;;25.46;21.79
78675;BME280;67990;59.826;30.108;2023-05-27T09:19:41;102079.59;;;24.95;23.39
78675;BME280;67990;59.826;30.108;2023-05-27T09:25:14;102082.63;;;24.08;24.18
78675;BME280;67990;59.826;30.108;2023-05-27T09:28:00;102095.16;;;23.72;24.16
78675;BME280;67990;59.826;30.108;2023-05-27T09:30:31;102087.78;;;23.31;23.60
78675;BME280;67990;59.826;30.108;2023-05-27T09:35:46;102098.13;;;24.63;24.03
78675;BME280;67990;59.826;30.108;2023-05-27T09:38:13;102108.25;;;23.09;25.07
78675;BME280;67990;59.826;30.108;2023-05-27T09:40:44;102110.38;;;23.65;25.29
78675;BME280;67990;59.826;30.108;2023-05-27T09:46:35;102109.41;;;22.92;25.33
78675;BME280;67990;59.826;30.108;2023-05-27T09:49:21;102102.19;;;22.78;24.96
78675;BME280;67990;59.826;30.108;2023-05-27T09:51:49;102105.78;;;22.63;26.89
78675;BME280;67990;59.826;30.108;2023-05-27T09:54:18;102115.69;;;22.85;26.80
78675;BME280;67990;59.826;30.108;2023-05-27T09:57:05;102117.84;;;23.04;26.63
78675;BME280;67990;59.826;30.108;2023-05-27T09:59:33;102105.38;;;22.74;27.29
78675;BME280;67990;59.826;30.108;2023-05-27T10:05:06;102128.16;;;20.91;29.47
78675;BME280;67990;59.826;30.108;2023-05-27T10:07:36;102138.00;;;21.07;30.05
78675;BME280;67990;59.826;30.108;2023-05-27T10:10:22;102138.25;;;20.48;31.37
78675;BME280;67990;59.826;30.108;2023-05-27T10:12:51;102142.19;;;20.93;31.42
78675;BME280;67990;59.826;30.108;2023-05-27T10:15:54;102141.97;;;20.63;32.51
78675;BME280;67990;59.826;30.108;2023-05-27T10:18:23;102139.41;;;19.96;33.10
78675;BME280;67990;59.826;30.108;2023-05-27T10:23:36;102149.56;;;19.16;33.61
78675;BME280;67990;59.826;30.108;2023-05-27T10:26:05;102143.81;;;18.68;34.48
78675;BME280;67990;59.826;30.108;2023-05-27T10:28:35;102152.13;;;18.82;35.36
78675;BME280;67990;59.826;30.108;2023-05-27T10:31:06;102160.22;;;18.73;34.76
78675;BME280;67990;59.826;30.108;2023-05-27T10:33:35;102162.31;;;19.04;34.54
78675;BME280;67990;59.826;30.108;2023-05-27T10:36:07;102161.41;;;18.78;33.18
78675;BME280;67990;59.826;30.108;2023-05-27T10:38:35;102166.06;;;18.32;33.21
78675;BME280;67990;59.826;30.108;2023-05-27T10:41:03;102170.66;;;18.39;34.08
78675;BME280;67990;59.826;30.108;2023-05-27T10:44:08;102168.31;;;18.54;34.39
78675;BME280;67990;59.826;30.108;2023-05-27T10:49:45;102164.53;;;18.56;34.16
78675;BME280;67990;59.826;30.108;2023-05-27T10:52:31;102170.06;;;18.63;34.61
78675;BME280;67990;59.826;30.108;2023-05-27T10:55:03;102161.41;;;18.78;34.15
78675;BME280;67990;59.826;30.108;2023-05-27T10:57:31;102161.69;;;18.93;34.09
78675;BME280;67990;59.826;30.108;2023-05-27T11:03:25;102156.47;;;18.83;34.68
78675;BME280;67990;59.826;30.108;2023-05-27T11:06:10;102163.22;;;18.43;34.06
78675;BME280;67990;59.826;30.108;2023-05-27T11:08:39;102181.19;;;18.31;35.86
78675;BME280;67990;59.826;30.108;2023-05-27T11:11:08;102193.91;;;18.10;35.88
78675;BME280;67990;59.826;30.108;2023-05-27T11:13:38;102196.88;;;17.61;37.24
78675;BME280;67990;59.826;30.108;2023-05-27T11:18:52;102201.41;;;16.66;41.34
78675;BME280;67990;59.826;30.108;2023-05-27T11:24:28;102208.97;;;15.70;44.97
78675;BME280;67990;59.826;30.108;2023-05-27T11:26:56;102205.06;;;15.13;45.94
78675;BME280;67990;59.826;30.108;2023-05-27T11:32:50;102213.59;;;14.42;48.75
78675;BME280;67990;59.826;30.108;2023-05-27T11:36:02;102229.72;;;14.28;50.17
78675;BME280;67990;59.826;30.108;2023-05-27T11:39:05;102237.06;;;14.25;50.41
78675;BME280;67990;59.826;30.108;2023-05-27T11:41:55;102247.25;;;14.07;51.92
78675;BME280;67990;59.826;30.108;2023-05-27T11:44:24;102252.19;;;14.12;51.74
78675;BME280;67990;59.826;30.108;2023-05-27T11:47:10;102253.75;;;14.14;50.93
78675;BME280;67990;59.826;30.108;2023-05-27T11:49:38;102246.56;;;14.27;50.30
78675;BME280;67990;59.826;30.108;2023-05-27T11:52:05;102247.50;;;14.37;50.78
78675;BME280;67990;59.826;30.108;2023-05-27T11:54:33;102254.91;;;14.54;50.15
78675;BME280;67990;59.826;30.108;2023-05-27T11:57:00;102254.22;;;14.41;50.09
78675;BME280;67990;59.826;30.108;2023-05-27T11:59:27;102266.00;;;14.59;49.71
78675;BME280;67990;59.826;30.108;2023-05-27T12:01:55;102265.38;;;14.78;50.44
78675;BME280;67990;59.826;30.108;2023-05-27T12:04:41;102265.22;;;14.79;49.33
78675;BME280;67990;59.826;30.108;2023-05-27T12:07:09;102268.78;;;15.00;48.97
78675;BME280;67990;59.826;30.108;2023-05-27T12:09:54;102264.94;;;14.93;47.88
78675;BME280;67990;59.826;30.108;2023-05-27T12:13:02;102268.91;;;15.30;48.06
78675;BME280;67990;59.826;30.108;2023-05-27T12:15:29;102276.19;;;15.49;47.30
78675;BME280;67990;59.826;30.108;2023-05-27T12:17:57;102276.19;;;15.49;46.55
78675;BME280;67990;59.826;30.108;2023-05-27T12:20:44;102283.16;;;15.70;45.79
78675;BME280;67990;59.826;30.108;2023-05-27T12:23:29;102275.28;;;16.00;45.27
78675;BME280;67990;59.826;30.108;2023-05-27T12:25:56;102273.44;;;16.01;44.96
78675;BME280;67990;59.826;30.108;2023-05-27T12:31:26;102281.75;;;16.17;43.76
78675;BME280;67990;59.826;30.108;2023-05-27T12:33:52;102274.97;;;16.03;43.68
78675;BME280;67990;59.826;30.108;2023-05-27T12:36:57;102258.13;;;16.04;43.51
78675;BME280;67990;59.826;30.108;2023-05-27T12:39:42;102254.34;;;15.77;42.63
78675;BME280;67990;59.826;30.108;2023-05-27T12:42:10;102260.97;;;15.30;42.56
78675;BME280;67990;59.826;30.108;2023-05-27T12:44:37;102246.75;;;15.31;41.53
78675;BME280;67990;59.826;30.108;2023-05-27T12:47:21;102251.81;;;15.34;42.90
78675;BME280;67990;59.826;30.108;2023-05-27T12:49:48;102241.22;;;15.55;42.39
78675;BME280;67990;59.826;30.108;2023-05-27T12:55:03;102212.44;;;15.41;43.31
78675;BME280;67990;59.826;30.108;2023-05-27T13:00:52;102217.50;;;15.53;41.76
78675;BME280;67990;59.826;30.108;2023-05-27T13:03:37;102218.28;;;15.44;41.38
78675;BME280;67990;59.826;30.108;2023-05-27T13:06:23;102227.47;;;15.40;41.33
78675;BME280;67990;59.826;30.108;2023-05-27T13:09:10;102219.69;;;15.28;41.89
78675;BME280;67990;59.826;30.108;2023-05-27T13:11:38;102218.00;;;15.27;41.75
78675;BME280;67990;59.826;30.108;2023-05-27T13:14:06;102210.13;;;15.16;41.79
78675;BME280;67990;59.826;30.108;2023-05-27T13:16:33;102219.56;;;15.29;41.74
78675;BME280;67990;59.826;30.108;2023-05-27T13:19:01;102219.94;;;15.36;41.21
78675;BME280;67990;59.826;30.108;2023-05-27T13:24:15;102223.13;;;15.19;41.37
78675;BME280;67990;59.826;30.108;2023-05-27T13:26:43;102227.03;;;15.24;41.17
78675;BME280;67990;59.826;30.108;2023-05-27T13:29:10;102223.72;;;15.43;41.49
78675;BME280;67990;59.826;30.108;2023-05-27T13:32:12;102227.03;;;15.35;41.07
78675;BME280;67990;59.826;30.108;2023-05-27T13:34:40;102228.22;;;15.31;40.79
78675;BME280;67990;59.826;30.108;2023-05-27T13:37:07;102227.09;;;15.34;40.81
78675;BME280;67990;59.826;30.108;2023-05-27T13:45:44;102230.63;;;15.34;40.00
78675;BME280;67990;59.826;30.108;2023-05-27T13:48:11;102230.69;;;15.12;40.10
78675;BME280;67990;59.826;30.108;2023-05-27T13:56:29;102234.31;;;15.11;40.77
78675;BME280;67990;59.826;30.108;2023-05-27T13:58:56;102235.81;;;15.04;40.43
78675;BME280;67990;59.826;30.108;2023-05-27T14:02:17;102240.47;;;14.80;40.41
78675;BME280;67990;59.826;30.108;2023-05-27T14:04:45;102235.88;;;14.82;40.70
78675;BME280;67990;59.826;30.108;2023-05-27T14:07:12;102230.56;;;14.82;41.36
78675;BME280;67990;59.826;30.108;2023-05-27T14:09:39;102233.22;;;14.82;41.45
78675;BME280;67990;59.826;30.108;2023-05-27T14:12:08;102245.56;;;14.93;41.94
78675;BME280;67990;59.826;30.108;2023-05-27T14:17:38;102246.47;;;15.14;42.44
78675;BME280;67990;59.826;30.108;2023-05-27T14:20:06;102243.75;;;15.04;42.64
78675;BME280;67990;59.826;30.108;2023-05-27T14:23:09;102237.09;;;15.10;42.85
78675;BME280;67990;59.826;30.108;2023-05-27T14:25:38;102243.22;;;15.10;43.27
78675;BME280;67990;59.826;30.108;2023-05-27T14:28:06;102256.72;;;15.07;43.24
78675;BME280;67990;59.826;30.108;2023-05-27T14:30:51;102251.22;;;14.99;42.53
78675;BME280;67990;59.826;30.108;2023-05-27T14:33:18;102247.09;;;15.06;42.18
78675;BME280;67990;59.826;30.108;2023-05-27T14:35:46;102244.56;;;15.05;41.07
78675;BME280;67990;59.826;30.108;2023-05-27T14:38:15;102247.94;;;15.07;41.61
78675;BME280;67990;59.826;30.108;2023-05-27T14:40:43;102243.16;;;15.01;40.68
78675;BME280;67990;59.826;30.108;2023-05-27T14:43:12;102235.75;;;14.84;40.89
78675;BME280;67990;59.826;30.108;2023-05-27T14:45:40;102246.44;;;14.93;40.84
78675;BME280;67990;59.826;30.108;2023-05-27T14:48:07;102251.75;;;14.82;40.75
78675;BME280;67990;59.826;30.108;2023-05-27T14:50:34;102242.50;;;14.77;39.95
78675;BME280;67990;59.826;30.108;2023-05-27T14:53:18;102235.03;;;14.82;40.40
78675;BME280;67990;59.826;30.108;2023-05-27T14:55:45;102244.44;;;14.75;41.18
78675;BME280;67990;59.826;30.108;2023-05-27T14:58:15;102242.50;;;14.77;41.72
78675;BME280;67990;59.826;30.108;2023-05-27T15:00:42;102238.63;;;14.81;41.46
78675;BME280;67990;59.826;30.108;2023-05-27T15:03:26;102243.47;;;14.76;41.62
78675;BME280;67990;59.826;30.108;2023-05-27T15:05:55;102238.41;;;14.73;42.69
78675;BME280;67990;59.826;30.108;2023-05-27T15:08:24;102251.53;;;14.74;42.99
78675;BME280;67990;59.826;30.108;2023-05-27T15:10:51;102250.56;;;14.75;42.81
78675;BME280;67990;59.826;30.108;2023-05-27T15:13:41;102248.88;;;14.74;42.57
78675;BME280;67990;59.826;30.108;2023-05-27T15:16:08;102252.97;;;14.78;42.45
78675;BME280;67990;59.826;30.108;2023-05-27T15:18:36;102242.66;;;14.64;42.36
78675;BME280;67990;59.826;30.108;2023-05-27T15:24:26;102244.56;;;14.73;42.34
78675;BME280;67990;59.826;30.108;2023-05-27T15:26:53;102247.78;;;14.77;42.11
78675;BME280;67990;59.826;30.108;2023-05-27T15:29:22;102250.81;;;14.72;41.85
78675;BME280;67990;59.826;30.108;2023-05-27T15:32:07;102252.84;;;14.80;42.57
78675;BME280;67990;59.826;30.108;2023-05-27T15:38:15;102246.22;;;14.74;42.14
78675;BME280;67990;59.826;30.108;2023-05-27T15:41:01;102240.59;;;14.68;42.47
78675;BME280;67990;59.826;30.108;2023-05-27T15:43:47;102249.50;;;14.67;42.46
78675;BME280;67990;59.826;30.108;2023-05-27T15:46:15;102251.63;;;14.73;42.48
78675;BME280;67990;59.826;30.108;2023-05-27T15:48:45;102259.50;;;14.63;42.45